sensor_id;sensor_type;location;lat;lon;timestamp;temperature;humidity
65568;DHT22;52211;50.154;8.682;2023-05-10T00:00:19;17.60;71.30
65568;DHT22;52211;50.154;8.682;2023-05-10T00:02:46;17.50;71.00
65568;DHT22;52211;50.154;8.682;2023-05-10T00:05:20;17.40;71.10
65568;DHT22;52211;50.154;8.682;2023-05-10T00:07:52;17.30;71.20
65568;DHT22;52211;50.154;8.682;2023-05-10T00:10:23;17.20;71.30
65568;DHT22;52211;50.154;8.682;2023-05-10T00:12:53;17.10;71.50
65568;DHT22;52211;50.154;8.682;2023-05-10T00:15:24;17.00;71.60
65568;DHT22;52211;50.154;8.682;2023-05-10T00:17:56;16.90;71.80
65568;DHT22;52211;50.154;8.682;2023-05-10T00:20:25;16.90;72.00
65568;DHT22;52211;50.154;8.682;2023-05-10T00:22:54;16.80;72.00
65568;DHT22;52211;50.154;8.682;2023-05-10T00:25:24;16.80;72.30
65568;DHT22;52211;50.154;8.682;2023-05-10T00:27:51;16.70;72.30
65568;DHT22;52211;50.154;8.682;2023-05-10T00:30:23;16.70;72.50
65568;DHT22;52211;50.154;8.682;2023-05-10T00:32:50;16.70;72.60
65568;DHT22;52211;50.154;8.682;2023-05-10T00:35:20;16.60;72.70
65568;DHT22;52211;50.154;8.682;2023-05-10T00:37:52;16.60;72.80
65568;DHT22;52211;50.154;8.682;2023-05-10T00:40:24;16.60;72.90
65568;DHT22;52211;50.154;8.682;2023-05-10T00:43:00;16.60;72.90
65568;DHT22;52211;50.154;8.682;2023-05-10T00:45:28;16.60;72.90
65568;DHT22;52211;50.154;8.682;2023-05-10T00:48:02;16.60;72.90
65568;DHT22;52211;50.154;8.682;2023-05-10T00:50:37;16.60;72.90
65568;DHT22;52211;50.154;8.682;2023-05-10T00:53:08;16.50;72.80
65568;DHT22;52211;50.154;8.682;2023-05-10T00:55:36;16.50;72.90
65568;DHT22;52211;50.154;8.682;2023-05-10T00:58:06;16.50;72.80
65568;DHT22;52211;50.154;8.682;2023-05-10T01:00:41;16.50;72.90
65568;DHT22;52211;50.154;8.682;2023-05-10T01:03:12;16.40;73.00
65568;DHT22;52211;50.154;8.682;2023-05-10T01:05:39;16.50;73.00
65568;DHT22;52211;50.154;8.682;2023-05-10T01:08:08;16.40;73.00
65568;DHT22;52211;50.154;8.682;2023-05-10T01:10:35;16.40;73.00
65568;DHT22;52211;50.154;8.682;2023-05-10T01:13:05;16.40;73.10
65568;DHT22;52211;50.154;8.682;2023-05-10T01:15:37;16.40;73.10
65568;DHT22;52211;50.154;8.682;2023-05-10T01:18:08;16.40;73.10
65568;DHT22;52211;50.154;8.682;2023-05-10T01:20:40;16.30;73.10
65568;DHT22;52211;50.154;8.682;2023-05-10T01:23:45;16.30;73.10
65568;DHT22;52211;50.154;8.682;2023-05-10T01:26:54;16.30;73.80
65568;DHT22;52211;50.154;8.682;2023-05-10T01:30:20;16.30;73.30
65568;DHT22;52211;50.154;8.682;2023-05-10T01:41:28;16.20;73.20
65568;DHT22;52211;50.154;8.682;2023-05-10T01:44:16;16.10;73.40
65568;DHT22;52211;50.154;8.682;2023-05-10T01:49:55;16.10;73.40
65568;DHT22;52211;50.154;8.682;2023-05-10T01:52:36;16.10;73.20
65568;DHT22;52211;50.154;8.682;2023-05-10T01:55:16;16.00;73.10
65568;DHT22;52211;50.154;8.682;2023-05-10T01:57:55;16.00;73.50
65568;DHT22;52211;50.154;8.682;2023-05-10T02:00:30;16.00;73.30
65568;DHT22;52211;50.154;8.682;2023-05-10T02:03:06;16.00;73.30
65568;DHT22;52211;50.154;8.682;2023-05-10T02:05:39;16.00;73.40
65568;DHT22;52211;50.154;8.682;2023-05-10T02:08:11;16.00;73.50
65568;DHT22;52211;50.154;8.682;2023-05-10T02:10:45;16.00;73.40
65568;DHT22;52211;50.154;8.682;2023-05-10T02:13:14;16.00;73.50
65568;DHT22;52211;50.154;8.682;2023-05-10T02:15:43;16.00;73.50
65568;DHT22;52211;50.154;8.682;2023-05-10T02:18:14;16.00;73.50
65568;DHT22;52211;50.154;8.682;2023-05-10T02:20:44;16.00;73.60
65568;DHT22;52211;50.154;8.682;2023-05-10T02:23:17;16.00;73.60
65568;DHT22;52211;50.154;8.682;2023-05-10T02:25:45;16.00;73.70
65568;DHT22;52211;50.154;8.682;2023-05-10T02:28:14;16.00;73.70
65568;DHT22;52211;50.154;8.682;2023-05-10T02:30:45;16.00;73.70
65568;DHT22;52211;50.154;8.682;2023-05-10T02:33:16;16.00;73.70
65568;DHT22;52211;50.154;8.682;2023-05-10T02:35:47;16.10;73.70
65568;DHT22;52211;50.154;8.682;2023-05-10T02:38:15;16.10;73.60
65568;DHT22;52211;50.154;8.682;2023-05-10T02:40:46;16.10;73.60
65568;DHT22;52211;50.154;8.682;2023-05-10T02:43:24;16.00;73.50
65568;DHT22;52211;50.154;8.682;2023-05-10T02:45:55;16.00;73.70
65568;DHT22;52211;50.154;8.682;2023-05-10T02:48:24;16.00;73.40
65568;DHT22;52211;50.154;8.682;2023-05-10T02:50:54;16.00;73.30
65568;DHT22;52211;50.154;8.682;2023-05-10T02:53:31;16.00;73.40
65568;DHT22;52211;50.154;8.682;2023-05-10T02:56:04;16.00;73.60
65568;DHT22;52211;50.154;8.682;2023-05-10T02:58:36;16.00;73.50
65568;DHT22;52211;50.154;8.682;2023-05-10T03:01:05;15.90;73.40
65568;DHT22;52211;50.154;8.682;2023-05-10T03:03:37;16.00;73.50
65568;DHT22;52211;50.154;8.682;2023-05-10T03:06:06;15.90;73.50
65568;DHT22;52211;50.154;8.682;2023-05-10T03:08:35;15.90;73.50
65568;DHT22;52211;50.154;8.682;2023-05-10T03:11:15;15.90;73.50
65568;DHT22;52211;50.154;8.682;2023-05-10T03:14:10;15.90;73.50
65568;DHT22;52211;50.154;8.682;2023-05-10T03:17:21;15.90;73.90
65568;DHT22;52211;50.154;8.682;2023-05-10T03:20:03;15.90;74.20
65568;DHT22;52211;50.154;8.682;2023-05-10T03:22:47;15.90;73.80
65568;DHT22;52211;50.154;8.682;2023-05-10T03:25:20;15.90;74.10
65568;DHT22;52211;50.154;8.682;2023-05-10T03:27:52;15.90;73.80
65568;DHT22;52211;50.154;8.682;2023-05-10T03:30:22;15.90;73.70
65568;DHT22;52211;50.154;8.682;2023-05-10T03:32:51;15.90;73.60
65568;DHT22;52211;50.154;8.682;2023-05-10T03:35:18;15.90;73.70
65568;DHT22;52211;50.154;8.682;2023-05-10T03:37:48;15.90;73.60
65568;DHT22;52211;50.154;8.682;2023-05-10T03:40:15;15.90;73.70
65568;DHT22;52211;50.154;8.682;2023-05-10T03:42:43;15.90;73.70
65568;DHT22;52211;50.154;8.682;2023-05-10T03:45:16;15.80;74.20
65568;DHT22;52211;50.154;8.682;2023-05-10T03:47:43;15.90;73.60
65568;DHT22;52211;50.154;8.682;2023-05-10T03:50:10;15.90;73.70
65568;DHT22;52211;50.154;8.682;2023-05-10T03:52:40;15.90;73.70
65568;DHT22;52211;50.154;8.682;2023-05-10T03:55:07;15.90;73.70
65568;DHT22;52211;50.154;8.682;2023-05-10T03:57:37;15.80;73.70
65568;DHT22;52211;50.154;8.682;2023-05-10T04:00:09;15.90;73.80
65568;DHT22;52211;50.154;8.682;2023-05-10T04:02:42;15.80;73.70
65568;DHT22;52211;50.154;8.682;2023-05-10T04:05:18;15.90;73.90
65568;DHT22;52211;50.154;8.682;2023-05-10T04:07:47;15.80;73.80
65568;DHT22;52211;50.154;8.682;2023-05-10T04:10:19;15.90;73.90
65568;DHT22;52211;50.154;8.682;2023-05-10T04:12:47;15.90;73.90
65568;DHT22;52211;50.154;8.682;2023-05-10T04:15:16;15.80;73.80
65568;DHT22;52211;50.154;8.682;2023-05-10T04:17:48;15.80;73.90
65568;DHT22;52211;50.154;8.682;2023-05-10T04:20:16;15.90;74.00
65568;DHT22;52211;50.154;8.682;2023-05-10T04:22:44;15.90;74.00
65568;DHT22;52211;50.154;8.682;2023-05-10T04:25:11;15.90;74.00
65568;DHT22;52211;50.154;8.682;2023-05-10T04:27:40;15.90;74.00
65568;DHT22;52211;50.154;8.682;2023-05-10T04:30:07;15.90;74.00
65568;DHT22;52211;50.154;8.682;2023-05-10T04:32:34;15.90;73.90
65568;DHT22;52211;50.154;8.682;2023-05-10T04:35:03;15.90;73.90
65568;DHT22;52211;50.154;8.682;2023-05-10T04:37:33;15.90;73.90
65568;DHT22;52211;50.154;8.682;2023-05-10T04:40:03;15.90;73.80
65568;DHT22;52211;50.154;8.682;2023-05-10T04:42:30;15.90;73.90
65568;DHT22;52211;50.154;8.682;2023-05-10T04:44:59;16.00;73.90
65568;DHT22;52211;50.154;8.682;2023-05-10T04:47:26;15.90;73.90
65568;DHT22;52211;50.154;8.682;2023-05-10T04:49:55;16.00;74.00
65568;DHT22;52211;50.154;8.682;2023-05-10T04:52:22;16.00;74.00
65568;DHT22;52211;50.154;8.682;2023-05-10T04:54:49;16.00;74.00
65568;DHT22;52211;50.154;8.682;2023-05-10T04:57:18;16.00;74.00
65568;DHT22;52211;50.154;8.682;2023-05-10T04:59:45;16.00;74.10
65568;DHT22;52211;50.154;8.682;2023-05-10T05:02:19;16.00;74.10
65568;DHT22;52211;50.154;8.682;2023-05-10T05:04:47;16.00;74.20
65568;DHT22;52211;50.154;8.682;2023-05-10T05:07:16;16.10;74.10
65568;DHT22;52211;50.154;8.682;2023-05-10T05:09:43;16.10;74.10
65568;DHT22;52211;50.154;8.682;2023-05-10T05:12:10;16.10;74.10
65568;DHT22;52211;50.154;8.682;2023-05-10T05:14:40;16.10;74.10
65568;DHT22;52211;50.154;8.682;2023-05-10T05:17:09;16.20;74.20
65568;DHT22;52211;50.154;8.682;2023-05-10T05:19:42;16.20;74.10
65568;DHT22;52211;50.154;8.682;2023-05-10T05:22:09;16.20;74.10
65568;DHT22;52211;50.154;8.682;2023-05-10T05:24:40;16.20;74.00
65568;DHT22;52211;50.154;8.682;2023-05-10T05:27:10;16.20;74.00
65568;DHT22;52211;50.154;8.682;2023-05-10T05:29:39;16.20;74.00
65568;DHT22;52211;50.154;8.682;2023-05-10T05:32:06;16.20;73.90
65568;DHT22;52211;50.154;8.682;2023-05-10T05:34:37;16.20;73.90
65568;DHT22;52211;50.154;8.682;2023-05-10T05:37:06;16.20;74.00
65568;DHT22;52211;50.154;8.682;2023-05-10T05:39:36;16.30;74.00
65568;DHT22;52211;50.154;8.682;2023-05-10T05:42:05;16.20;73.90
65568;DHT22;52211;50.154;8.682;2023-05-10T05:44:32;16.20;73.80
65568;DHT22;52211;50.154;8.682;2023-05-10T05:47:01;16.20;73.80
65568;DHT22;52211;50.154;8.682;2023-05-10T05:49:30;16.30;73.90
65568;DHT22;52211;50.154;8.682;2023-05-10T05:52:00;16.20;73.90
65568;DHT22;52211;50.154;8.682;2023-05-10T05:54:31;16.20;73.90
65568;DHT22;52211;50.154;8.682;2023-05-10T05:57:00;16.30;74.60
65568;DHT22;52211;50.154;8.682;2023-05-10T05:59:27;16.30;74.10
65568;DHT22;52211;50.154;8.682;2023-05-10T06:01:56;16.30;73.90
65568;DHT22;52211;50.154;8.682;2023-05-10T06:04:24;16.30;74.00
65568;DHT22;52211;50.154;8.682;2023-05-10T06:06:50;16.30;73.90
65568;DHT22;52211;50.154;8.682;2023-05-10T06:09:20;16.30;73.90
65568;DHT22;52211;50.154;8.682;2023-05-10T06:11:47;16.30;73.90
65568;DHT22;52211;50.154;8.682;2023-05-10T06:14:17;16.30;74.00
65568;DHT22;52211;50.154;8.682;2023-05-10T06:16:48;16.40;74.00
65568;DHT22;52211;50.154;8.682;2023-05-10T06:19:18;16.40;74.00
65568;DHT22;52211;50.154;8.682;2023-05-10T06:21:47;16.40;73.90
65568;DHT22;52211;50.154;8.682;2023-05-10T06:24:14;16.40;74.00
65568;DHT22;52211;50.154;8.682;2023-05-10T06:26:43;16.50;74.00
65568;DHT22;52211;50.154;8.682;2023-05-10T06:29:10;16.50;74.00
65568;DHT22;52211;50.154;8.682;2023-05-10T06:31:41;16.50;74.00
65568;DHT22;52211;50.154;8.682;2023-05-10T06:34:08;16.60;73.90
65568;DHT22;52211;50.154;8.682;2023-05-10T06:36:35;16.50;73.80
65568;DHT22;52211;50.154;8.682;2023-05-10T06:39:05;16.50;73.70
65568;DHT22;52211;50.154;8.682;2023-05-10T06:41:32;16.60;73.80
65568;DHT22;52211;50.154;8.682;2023-05-10T06:44:03;16.60;73.80
65568;DHT22;52211;50.154;8.682;2023-05-10T06:46:35;16.60;73.80
65568;DHT22;52211;50.154;8.682;2023-05-10T06:49:04;16.70;73.90
65568;DHT22;52211;50.154;8.682;2023-05-10T06:51:34;16.70;73.90
65568;DHT22;52211;50.154;8.682;2023-05-10T06:54:03;16.70;73.70
65568;DHT22;52211;50.154;8.682;2023-05-10T06:56:32;16.80;73.80
65568;DHT22;52211;50.154;8.682;2023-05-10T06:59:01;16.80;73.80
65568;DHT22;52211;50.154;8.682;2023-05-10T07:01:29;16.80;73.80
65568;DHT22;52211;50.154;8.682;2023-05-10T07:03:56;16.90;73.80
65568;DHT22;52211;50.154;8.682;2023-05-10T07:06:23;16.90;74.10
65568;DHT22;52211;50.154;8.682;2023-05-10T07:09:00;16.90;73.70
65568;DHT22;52211;50.154;8.682;2023-05-10T07:11:31;17.00;73.70
65568;DHT22;52211;50.154;8.682;2023-05-10T07:14:01;17.00;73.80
65568;DHT22;52211;50.154;8.682;2023-05-10T07:16:33;17.10;73.80
65568;DHT22;52211;50.154;8.682;2023-05-10T07:19:00;17.10;73.70
65568;DHT22;52211;50.154;8.682;2023-05-10T07:21:31;17.20;73.60
65568;DHT22;52211;50.154;8.682;2023-05-10T07:23:58;17.20;73.40
65568;DHT22;52211;50.154;8.682;2023-05-10T07:26:26;17.20;73.20
65568;DHT22;52211;50.154;8.682;2023-05-10T07:28:56;17.20;73.20
65568;DHT22;52211;50.154;8.682;2023-05-10T07:31:25;17.20;73.10
65568;DHT22;52211;50.154;8.682;2023-05-10T07:33:54;17.20;73.10
65568;DHT22;52211;50.154;8.682;2023-05-10T07:36:21;17.20;73.10
65568;DHT22;52211;50.154;8.682;2023-05-10T07:38:48;17.20;73.20
65568;DHT22;52211;50.154;8.682;2023-05-10T07:41:18;17.30;73.10
65568;DHT22;52211;50.154;8.682;2023-05-10T07:43:45;17.20;72.90
65568;DHT22;52211;50.154;8.682;2023-05-10T07:46:16;17.30;72.90
65568;DHT22;52211;50.154;8.682;2023-05-10T07:48:43;17.30;72.90
65568;DHT22;52211;50.154;8.682;2023-05-10T07:51:14;17.30;72.90
65568;DHT22;52211;50.154;8.682;2023-05-10T07:53:43;17.30;72.90
65568;DHT22;52211;50.154;8.682;2023-05-10T07:56:23;17.30;72.90
65568;DHT22;52211;50.154;8.682;2023-05-10T07:58:56;17.30;72.70
65568;DHT22;52211;50.154;8.682;2023-05-10T08:01:23;17.30;72.70
65568;DHT22;52211;50.154;8.682;2023-05-10T08:03:52;17.30;72.70
65568;DHT22;52211;50.154;8.682;2023-05-10T08:06:24;17.30;72.80
65568;DHT22;52211;50.154;8.682;2023-05-10T08:08:57;17.30;72.90
65568;DHT22;52211;50.154;8.682;2023-05-10T08:11:26;17.40;73.00
65568;DHT22;52211;50.154;8.682;2023-05-10T08:13:57;17.40;72.90
65568;DHT22;52211;50.154;8.682;2023-05-10T08:16:26;17.50;72.90
65568;DHT22;52211;50.154;8.682;2023-05-10T08:18:58;17.50;72.90
65568;DHT22;52211;50.154;8.682;2023-05-10T08:21:29;17.60;72.90
65568;DHT22;52211;50.154;8.682;2023-05-10T08:23:57;17.60;72.80
65568;DHT22;52211;50.154;8.682;2023-05-10T08:26:24;17.70;72.80
65568;DHT22;52211;50.154;8.682;2023-05-10T08:28:52;17.70;72.70
65568;DHT22;52211;50.154;8.682;2023-05-10T08:31:23;17.80;72.70
65568;DHT22;52211;50.154;8.682;2023-05-10T08:33:57;17.90;72.70
65568;DHT22;52211;50.154;8.682;2023-05-10T08:36:24;17.90;72.50
65568;DHT22;52211;50.154;8.682;2023-05-10T08:38:51;18.00;72.50
65568;DHT22;52211;50.154;8.682;2023-05-10T08:41:22;18.10;72.60
65568;DHT22;52211;50.154;8.682;2023-05-10T08:43:54;18.20;72.40
65568;DHT22;52211;50.154;8.682;2023-05-10T08:46:22;18.20;72.20
65568;DHT22;52211;50.154;8.682;2023-05-10T08:48:53;18.30;72.10
65568;DHT22;52211;50.154;8.682;2023-05-10T08:51:24;18.30;71.90
65568;DHT22;52211;50.154;8.682;2023-05-10T08:53:57;18.40;71.80
65568;DHT22;52211;50.154;8.682;2023-05-10T08:56:27;18.40;71.70
65568;DHT22;52211;50.154;8.682;2023-05-10T08:58:54;18.50;71.40
65568;DHT22;52211;50.154;8.682;2023-05-10T09:01:24;18.50;71.30
65568;DHT22;52211;50.154;8.682;2023-05-10T09:03:56;18.50;71.10
65568;DHT22;52211;50.154;8.682;2023-05-10T09:06:29;18.50;71.00
65568;DHT22;52211;50.154;8.682;2023-05-10T09:08:59;18.50;71.00
65568;DHT22;52211;50.154;8.682;2023-05-10T09:11:26;18.50;70.90
65568;DHT22;52211;50.154;8.682;2023-05-10T09:13:58;18.50;70.80
65568;DHT22;52211;50.154;8.682;2023-05-10T09:16:29;18.40;70.70
65568;DHT22;52211;50.154;8.682;2023-05-10T09:18:56;18.30;70.80
65568;DHT22;52211;50.154;8.682;2023-05-10T09:21:28;18.30;71.00
65568;DHT22;52211;50.154;8.682;2023-05-10T09:24:05;18.20;71.10
65568;DHT22;52211;50.154;8.682;2023-05-10T09:26:49;18.20;71.40
65568;DHT22;52211;50.154;8.682;2023-05-10T09:29:16;18.20;71.70
65568;DHT22;52211;50.154;8.682;2023-05-10T09:31:48;18.20;71.70
65568;DHT22;52211;50.154;8.682;2023-05-10T09:34:33;18.20;71.70
65568;DHT22;52211;50.154;8.682;2023-05-10T09:37:02;18.20;71.60
65568;DHT22;52211;50.154;8.682;2023-05-10T09:39:38;18.20;71.40
65568;DHT22;52211;50.154;8.682;2023-05-10T09:42:08;18.30;71.50
65568;DHT22;52211;50.154;8.682;2023-05-10T09:44:38;18.30;71.70
65568;DHT22;52211;50.154;8.682;2023-05-10T09:47:17;18.20;71.50
65568;DHT22;52211;50.154;8.682;2023-05-10T09:49:52;18.30;71.60
65568;DHT22;52211;50.154;8.682;2023-05-10T09:52:29;18.30;71.60
65568;DHT22;52211;50.154;8.682;2023-05-10T09:55:19;18.30;71.80
65568;DHT22;52211;50.154;8.682;2023-05-10T09:57:59;18.40;71.80
65568;DHT22;52211;50.154;8.682;2023-05-10T10:00:35;18.40;72.00
65568;DHT22;52211;50.154;8.682;2023-05-10T10:03:13;18.50;72.10
65568;DHT22;52211;50.154;8.682;2023-05-10T10:05:43;18.60;71.70
65568;DHT22;52211;50.154;8.682;2023-05-10T10:08:11;18.60;71.70
65568;DHT22;52211;50.154;8.682;2023-05-10T10:10:41;18.70;71.70
65568;DHT22;52211;50.154;8.682;2023-05-10T10:13:11;18.80;71.60
65568;DHT22;52211;50.154;8.682;2023-05-10T10:15:38;18.90;71.30
65568;DHT22;52211;50.154;8.682;2023-05-10T10:18:05;19.00;71.20
65568;DHT22;52211;50.154;8.682;2023-05-10T10:20:37;19.00;70.90
65568;DHT22;52211;50.154;8.682;2023-05-10T10:23:08;19.10;70.80
65568;DHT22;52211;50.154;8.682;2023-05-10T10:25:35;19.10;70.60
65568;DHT22;52211;50.154;8.682;2023-05-10T10:31:10;19.10;70.40
65568;DHT22;52211;50.154;8.682;2023-05-10T10:36:46;19.10;70.50
65568;DHT22;52211;50.154;8.682;2023-05-10T10:39:14;19.10;70.10
65568;DHT22;52211;50.154;8.682;2023-05-10T10:41:55;19.10;71.00
65568;DHT22;52211;50.154;8.682;2023-05-10T10:52:42;19.10;69.80
65568;DHT22;52211;50.154;8.682;2023-05-10T10:55:11;19.00;69.90
65568;DHT22;52211;50.154;8.682;2023-05-10T10:57:49;19.10;69.80
65568;DHT22;52211;50.154;8.682;2023-05-10T11:00:33;19.00;69.40
65568;DHT22;52211;50.154;8.682;2023-05-10T11:05:43;18.90;69.10
65568;DHT22;52211;50.154;8.682;2023-05-10T11:08:20;18.80;69.30
65568;DHT22;52211;50.154;8.682;2023-05-10T11:13:42;18.70;69.50
65568;DHT22;52211;50.154;8.682;2023-05-10T11:19:17;18.60;69.70
65568;DHT22;52211;50.154;8.682;2023-05-10T11:22:11;18.50;69.70
65568;DHT22;52211;50.154;8.682;2023-05-10T11:24:57;18.60;69.90
65568;DHT22;52211;50.154;8.682;2023-05-10T11:27:25;18.60;70.00
65568;DHT22;52211;50.154;8.682;2023-05-10T11:29:54;18.60;70.20
65568;DHT22;52211;50.154;8.682;2023-05-10T11:32:24;18.60;70.20
65568;DHT22;52211;50.154;8.682;2023-05-10T11:34:53;18.60;70.10
65568;DHT22;52211;50.154;8.682;2023-05-10T11:37:22;18.70;70.10
65568;DHT22;52211;50.154;8.682;2023-05-10T11:39:51;18.80;70.10
65568;DHT22;52211;50.154;8.682;2023-05-10T11:42:21;18.80;70.00
65568;DHT22;52211;50.154;8.682;2023-05-10T11:44:48;18.90;70.00
65568;DHT22;52211;50.154;8.682;2023-05-10T11:47:20;19.00;69.90
65568;DHT22;52211;50.154;8.682;2023-05-10T11:49:51;19.10;69.70
65568;DHT22;52211;50.154;8.682;2023-05-10T11:52:19;19.10;69.30
65568;DHT22;52211;50.154;8.682;2023-05-10T11:54:52;19.20;69.40
65568;DHT22;52211;50.154;8.682;2023-05-10T11:57:27;19.20;69.20
65568;DHT22;52211;50.154;8.682;2023-05-10T11:59:56;19.30;69.10
65568;DHT22;52211;50.154;8.682;2023-05-10T12:02:24;19.30;68.80
65568;DHT22;52211;50.154;8.682;2023-05-10T12:04:56;19.30;68.80
65568;DHT22;52211;50.154;8.682;2023-05-10T12:07:27;19.30;68.80
65568;DHT22;52211;50.154;8.682;2023-05-10T12:10:07;19.30;68.70
65568;DHT22;52211;50.154;8.682;2023-05-10T12:15:22;19.40;68.80
65568;DHT22;52211;50.154;8.682;2023-05-10T12:17:53;19.40;68.50
65568;DHT22;52211;50.154;8.682;2023-05-10T12:20:27;19.40;68.60
65568;DHT22;52211;50.154;8.682;2023-05-10T12:22:56;19.40;68.30
65568;DHT22;52211;50.154;8.682;2023-05-10T12:25:30;19.50;68.50
65568;DHT22;52211;50.154;8.682;2023-05-10T12:28:04;19.40;68.40
65568;DHT22;52211;50.154;8.682;2023-05-10T12:30:36;19.50;68.60
65568;DHT22;52211;50.154;8.682;2023-05-10T12:33:11;19.50;68.70
65568;DHT22;52211;50.154;8.682;2023-05-10T12:35:46;19.60;68.80
65568;DHT22;52211;50.154;8.682;2023-05-10T12:41:14;19.80;68.70
65568;DHT22;52211;50.154;8.682;2023-05-10T12:43:42;20.00;68.80
65568;DHT22;52211;50.154;8.682;2023-05-10T12:46:10;20.20;69.00
65568;DHT22;52211;50.154;8.682;2023-05-10T12:48:42;20.30;68.90
65568;DHT22;52211;50.154;8.682;2023-05-10T12:51:14;20.60;69.40
65568;DHT22;52211;50.154;8.682;2023-05-10T12:53:50;20.90;68.80
65568;DHT22;52211;50.154;8.682;2023-05-10T12:56:24;21.10;68.10
65568;DHT22;52211;50.154;8.682;2023-05-10T12:58:53;21.30;67.30
65568;DHT22;52211;50.154;8.682;2023-05-10T13:01:20;21.50;66.70
65568;DHT22;52211;50.154;8.682;2023-05-10T13:03:55;21.60;66.50
65568;DHT22;52211;50.154;8.682;2023-05-10T13:06:24;21.70;66.20
65568;DHT22;52211;50.154;8.682;2023-05-10T13:08:54;21.90;65.90
65568;DHT22;52211;50.154;8.682;2023-05-10T13:11:21;22.00;64.90
65568;DHT22;52211;50.154;8.682;2023-05-10T13:13:48;22.00;64.80
65568;DHT22;52211;50.154;8.682;2023-05-10T13:16:17;22.10;64.40
65568;DHT22;52211;50.154;8.682;2023-05-10T13:18:46;22.10;63.90
65568;DHT22;52211;50.154;8.682;2023-05-10T13:21:15;22.10;63.60
65568;DHT22;52211;50.154;8.682;2023-05-10T13:23:44;22.00;62.90
65568;DHT22;52211;50.154;8.682;2023-05-10T13:26:12;22.00;63.40
65568;DHT22;52211;50.154;8.682;2023-05-10T13:28:41;22.00;63.20
65568;DHT22;52211;50.154;8.682;2023-05-10T13:31:12;21.90;63.40
65568;DHT22;52211;50.154;8.682;2023-05-10T13:33:39;22.00;63.30
65568;DHT22;52211;50.154;8.682;2023-05-10T13:36:06;22.10;63.30
65568;DHT22;52211;50.154;8.682;2023-05-10T13:38:35;22.20;62.40
65568;DHT22;52211;50.154;8.682;2023-05-10T13:41:05;22.30;62.40
65568;DHT22;52211;50.154;8.682;2023-05-10T13:43:34;22.30;61.70
65568;DHT22;52211;50.154;8.682;2023-05-10T13:46:03;22.30;61.40
65568;DHT22;52211;50.154;8.682;2023-05-10T13:48:30;22.20;61.10
65568;DHT22;52211;50.154;8.682;2023-05-10T13:51:00;22.20;61.00
65568;DHT22;52211;50.154;8.682;2023-05-10T13:53:27;22.10;60.90
65568;DHT22;52211;50.154;8.682;2023-05-10T13:55:54;22.00;60.90
65568;DHT22;52211;50.154;8.682;2023-05-10T13:58:27;22.00;60.80
65568;DHT22;52211;50.154;8.682;2023-05-10T14:00:56;21.90;60.60
65568;DHT22;52211;50.154;8.682;2023-05-10T14:03:23;21.80;60.60
65568;DHT22;52211;50.154;8.682;2023-05-10T14:05:51;21.70;60.60
65568;DHT22;52211;50.154;8.682;2023-05-10T14:08:20;21.70;60.50
65568;DHT22;52211;50.154;8.682;2023-05-10T14:10:49;21.70;60.50
65568;DHT22;52211;50.154;8.682;2023-05-10T14:13:19;21.70;60.50
65568;DHT22;52211;50.154;8.682;2023-05-10T14:15:48;21.70;60.20
65568;DHT22;52211;50.154;8.682;2023-05-10T14:18:15;21.70;60.20
65568;DHT22;52211;50.154;8.682;2023-05-10T14:20:44;21.90;60.10
65568;DHT22;52211;50.154;8.682;2023-05-10T14:23:14;21.90;59.90
65568;DHT22;52211;50.154;8.682;2023-05-10T14:25:41;22.00;60.00
65568;DHT22;52211;50.154;8.682;2023-05-10T14:28:10;22.20;59.40
65568;DHT22;52211;50.154;8.682;2023-05-10T14:30:42;22.30;59.40
65568;DHT22;52211;50.154;8.682;2023-05-10T14:33:11;22.40;59.20
65568;DHT22;52211;50.154;8.682;2023-05-10T14:35:41;22.50;59.10
65568;DHT22;52211;50.154;8.682;2023-05-10T14:38:11;22.60;58.80
65568;DHT22;52211;50.154;8.682;2023-05-10T14:40:41;22.60;58.30
65568;DHT22;52211;50.154;8.682;2023-05-10T14:43:09;22.70;57.90
65568;DHT22;52211;50.154;8.682;2023-05-10T14:45:38;22.80;57.60
65568;DHT22;52211;50.154;8.682;2023-05-10T14:48:12;22.80;57.30
65568;DHT22;52211;50.154;8.682;2023-05-10T14:50:42;22.80;57.10
65568;DHT22;52211;50.154;8.682;2023-05-10T14:53:09;22.80;57.20
65568;DHT22;52211;50.154;8.682;2023-05-10T14:55:38;22.80;57.30
65568;DHT22;52211;50.154;8.682;2023-05-10T14:58:08;22.80;56.70
65568;DHT22;52211;50.154;8.682;2023-05-10T15:00:35;23.00;56.50
65568;DHT22;52211;50.154;8.682;2023-05-10T15:03:02;23.00;56.50
65568;DHT22;52211;50.154;8.682;2023-05-10T15:05:30;23.00;56.50
65568;DHT22;52211;50.154;8.682;2023-05-10T15:08:04;23.10;56.70
65568;DHT22;52211;50.154;8.682;2023-05-10T15:10:36;23.10;56.60
65568;DHT22;52211;50.154;8.682;2023-05-10T15:13:06;23.30;56.20
65568;DHT22;52211;50.154;8.682;2023-05-10T15:15:37;23.40;56.10
65568;DHT22;52211;50.154;8.682;2023-05-10T15:18:09;23.50;55.60
65568;DHT22;52211;50.154;8.682;2023-05-10T15:20:36;23.50;55.30
65568;DHT22;52211;50.154;8.682;2023-05-10T15:23:05;23.50;55.20
65568;DHT22;52211;50.154;8.682;2023-05-10T15:25:34;23.50;55.10
65568;DHT22;52211;50.154;8.682;2023-05-10T15:28:04;23.50;54.90
65568;DHT22;52211;50.154;8.682;2023-05-10T15:30:33;23.60;54.80
65568;DHT22;52211;50.154;8.682;2023-05-10T15:33:00;23.60;54.80
65568;DHT22;52211;50.154;8.682;2023-05-10T15:35:27;23.70;54.60
65568;DHT22;52211;50.154;8.682;2023-05-10T15:37:58;23.70;54.20
65568;DHT22;52211;50.154;8.682;2023-05-10T15:40:25;23.70;54.10
65568;DHT22;52211;50.154;8.682;2023-05-10T15:42:54;23.80;53.50
65568;DHT22;52211;50.154;8.682;2023-05-10T15:45:21;23.70;53.50
65568;DHT22;52211;50.154;8.682;2023-05-10T15:47:49;23.70;53.20
65568;DHT22;52211;50.154;8.682;2023-05-10T15:50:16;23.60;53.20
65568;DHT22;52211;50.154;8.682;2023-05-10T15:52:45;23.40;53.00
65568;DHT22;52211;50.154;8.682;2023-05-10T15:55:15;23.30;52.90
65568;DHT22;52211;50.154;8.682;2023-05-10T15:57:45;23.10;53.10
65568;DHT22;52211;50.154;8.682;2023-05-10T16:00:14;23.00;53.30
65568;DHT22;52211;50.154;8.682;2023-05-10T16:02:44;22.90;53.40
65568;DHT22;52211;50.154;8.682;2023-05-10T16:05:10;22.70;53.40
65568;DHT22;52211;50.154;8.682;2023-05-10T16:07:37;22.60;53.40
65568;DHT22;52211;50.154;8.682;2023-05-10T16:10:12;22.50;53.50
65568;DHT22;52211;50.154;8.682;2023-05-10T16:12:39;22.30;53.50
65568;DHT22;52211;50.154;8.682;2023-05-10T16:15:07;22.20;53.90
65568;DHT22;52211;50.154;8.682;2023-05-10T16:17:38;22.20;54.00
65568;DHT22;52211;50.154;8.682;2023-05-10T16:20:06;22.10;53.90
65568;DHT22;52211;50.154;8.682;2023-05-10T16:22:34;22.00;54.00
65568;DHT22;52211;50.154;8.682;2023-05-10T16:25:01;21.90;53.90
65568;DHT22;52211;50.154;8.682;2023-05-10T16:27:31;21.80;53.90
65568;DHT22;52211;50.154;8.682;2023-05-10T16:30:01;21.80;54.00
65568;DHT22;52211;50.154;8.682;2023-05-10T16:32:30;21.80;54.10